sensor_id;sensor_type;location;lat;lon;timestamp;pressure;altitude;pressure_sealevel;temperature;humidity
71791;BME280;59638;52.126;5.434;2023-08-21T00:02:09;102410.97;;;15.84;100.00
71791;BME280;59638;52.126;5.434;2023-08-21T00:04:36;102406.53;;;15.85;100.00
71791;BME280;59638;52.126;5.434;2023-08-21T00:07:02;102406.25;;;15.88;100.00
71791;BME280;59638;52.126;5.434;2023-08-21T00:09:29;102401.50;;;15.91;100.00
71791;BME280;59638;52.126;5.434;2023-08-21T00:11:55;102414.81;;;15.91;100.00
71791;BME280;59638;52.126;5.434;2023-08-21T00:14:22;102408.78;;;15.89;100.00
71791;BME280;59638;52.126;5.434;2023-08-21T00:16:48;102411.44;;;15.89;100.00
71791;BME280;59638;52.126;5.434;2023-08-21T00:19:15;102414.94;;;15.90;100.00
71791;BME280;59638;52.126;5.434;2023-08-21T00:21:41;102405.84;;;15.92;100.00
71791;BME280;59638;52.126;5.434;2023-08-21T00:24:08;102412.47;;;15.98;100.00
71791;BME280;59638;52.126;5.434;2023-08-21T00:26:35;102412.31;;;15.99;100.00
71791;BME280;59638;52.126;5.434;2023-08-21T00:29:01;102418.63;;;15.98;100.00
71791;BME280;59638;52.126;5.434;2023-08-21T00:31:28;102402.22;;;15.93;100.00
71791;BME280;59638;52.126;5.434;2023-08-21T00:33:54;102406.53;;;15.85;100.00
71791;BME280;59638;52.126;5.434;2023-08-21T00:36:21;102406.78;;;15.82;100.00
71791;BME280;59638;52.126;5.434;2023-08-21T00:38:47;102406.78;;;15.82;100.00
71791;BME280;59638;52.126;5.434;2023-08-21T00:41:14;102406.63;;;15.83;100.00
71791;BME280;59638;52.126;5.434;2023-08-21T00:43:41;102409.06;;;15.86;100.00
71791;BME280;59638;52.126;5.434;2023-08-21T00:46:07;102403.44;;;15.89;100.00
71791;BME280;59638;52.126;5.434;2023-08-21T00:48:34;102411.28;;;15.91;100.00
71791;BME280;59638;52.126;5.434;2023-08-21T00:51:01;102397.88;;;15.92;100.00
71791;BME280;59638;52.126;5.434;2023-08-21T00:53:27;102401.75;;;15.88;100.00
71791;BME280;59638;52.126;5.434;2023-08-21T00:55:55;102394.16;;;15.84;100.00
71791;BME280;59638;52.126;5.434;2023-08-21T00:58:21;102392.63;;;15.81;100.00
71791;BME280;59638;52.126;5.434;2023-08-21T01:00:49;102405.09;;;15.81;100.00
71791;BME280;59638;52.126;5.434;2023-08-21T01:03:18;102396.28;;;15.80;100.00
71791;BME280;59638;52.126;5.434;2023-08-21T01:05:45;102405.94;;;15.81;100.00
71791;BME280;59638;52.126;5.434;2023-08-21T01:08:20;102402.56;;;15.79;100.00
71791;BME280;59638;52.126;5.434;2023-08-21T01:16:13;102389.66;;;15.74;100.00
71791;BME280;59638;52.126;5.434;2023-08-21T01:18:41;102390.78;;;15.72;100.00
71791;BME280;59638;52.126;5.434;2023-08-21T01:21:10;102393.97;;;15.66;100.00
71791;BME280;59638;52.126;5.434;2023-08-21T01:23:37;102393.25;;;15.64;100.00
71791;BME280;59638;52.126;5.434;2023-08-21T01:26:04;102391.81;;;15.60;100.00
71791;BME280;59638;52.126;5.434;2023-08-21T01:28:32;102393.63;;;15.59;100.00
71791;BME280;59638;52.126;5.434;2023-08-21T01:33:39;102386.47;;;15.60;100.00
71791;BME280;59638;52.126;5.434;2023-08-21T01:36:07;102389.88;;;15.62;100.00
71791;BME280;59638;52.126;5.434;2023-08-21T01:38:35;102398.31;;;15.67;100.00
71791;BME280;59638;52.126;5.434;2023-08-21T01:41:02;102394.13;;;15.74;100.00
71791;BME280;59638;52.126;5.434;2023-08-21T01:43:28;102402.56;;;15.79;100.00
71791;BME280;59638;52.126;5.434;2023-08-21T01:45:55;102402.28;;;15.82;100.00
71791;BME280;59638;52.126;5.434;2023-08-21T01:48:22;102403.97;;;15.83;100.00
71791;BME280;59638;52.126;5.434;2023-08-21T01:50:48;102401.75;;;15.79;100.00
71791;BME280;59638;52.126;5.434;2023-08-21T01:53:15;102405.63;;;15.74;100.00
71791;BME280;59638;52.126;5.434;2023-08-21T01:55:41;102404.94;;;15.72;100.00
71791;BME280;59638;52.126;5.434;2023-08-21T01:58:08;102398.75;;;15.72;100.00
71791;BME280;59638;52.126;5.434;2023-08-21T02:00:34;102400.44;;;15.73;100.00
71791;BME280;59638;52.126;5.434;2023-08-21T02:03:01;102398.88;;;15.70;100.00
71791;BME280;59638;52.126;5.434;2023-08-21T02:05:27;102399.16;;;15.67;100.00
71791;BME280;59638;52.126;5.434;2023-08-21T02:07:54;102401.13;;;15.65;100.00
71791;BME280;59638;52.126;5.434;2023-08-21T02:10:20;102406.03;;;15.70;100.00
71791;BME280;59638;52.126;5.434;2023-08-21T02:12:48;102406.75;;;15.72;100.00
71791;BME280;59638;52.126;5.434;2023-08-21T02:15:15;102398.94;;;15.80;100.00
71791;BME280;59638;52.126;5.434;2023-08-21T02:17:41;102394.75;;;15.87;100.00
71791;BME280;59638;52.126;5.434;2023-08-21T02:20:10;102395.91;;;15.94;100.00
71791;BME280;59638;52.126;5.434;2023-08-21T02:22:36;102402.66;;;15.98;100.00
71791;BME280;59638;52.126;5.434;2023-08-21T02:25:03;102393.69;;;15.99;100.00
71791;BME280;59638;52.126;5.434;2023-08-21T02:27:30;102399.00;;;15.99;100.00
71791;BME280;59638;52.126;5.434;2023-08-21T02:29:56;102400.69;;;16.00;100.00
71791;BME280;59638;52.126;5.434;2023-08-21T02:32:22;102400.41;;;16.03;100.00
71791;BME280;59638;52.126;5.434;2023-08-21T02:34:49;102398.19;;;16.09;100.00
71791;BME280;59638;52.126;5.434;2023-08-21T02:37:15;102397.94;;;16.12;100.00
71791;BME280;59638;52.126;5.434;2023-08-21T02:39:42;102397.38;;;16.18;100.00
71791;BME280;59638;52.126;5.434;2023-08-21T02:42:08;102404.41;;;16.19;100.00
71791;BME280;59638;52.126;5.434;2023-08-21T02:44:35;102403.97;;;16.14;100.00
71791;BME280;59638;52.126;5.434;2023-08-21T02:47:01;102410.41;;;16.11;100.00
71791;BME280;59638;52.126;5.434;2023-08-21T02:49:27;102410.28;;;16.13;100.00
71791;BME280;59638;52.126;5.434;2023-08-21T02:51:54;102411.09;;;16.13;100.00
71791;BME280;59638;52.126;5.434;2023-08-21T02:54:20;102408.44;;;16.13;100.00
71791;BME280;59638;52.126;5.434;2023-08-21T02:56:47;102414.59;;;16.14;100.00
71791;BME280;59638;52.126;5.434;2023-08-21T02:59:14;102407.47;;;16.14;100.00
71791;BME280;59638;52.126;5.434;2023-08-21T03:01:41;102409.97;;;16.16;100.00
71791;BME280;59638;52.126;5.434;2023-08-21T03:04:07;102406.34;;;16.17;100.00
71791;BME280;59638;52.126;5.434;2023-08-21T03:06:34;102408.03;;;16.18;100.00
71791;BME280;59638;52.126;5.434;2023-08-21T03:09:00;102402.72;;;16.18;100.00
71791;BME280;59638;52.126;5.434;2023-08-21T03:11:26;102403.56;;;16.18;100.00
71791;BME280;59638;52.126;5.434;2023-08-21T03:13:53;102405.09;;;16.21;100.00
71791;BME280;59638;52.126;5.434;2023-08-21T03:16:20;102409.28;;;16.23;100.00
71791;BME280;59638;52.126;5.434;2023-08-21T03:19:00;102403.28;;;16.21;100.00
71791;BME280;59638;52.126;5.434;2023-08-21T03:21:27;102405.09;;;16.21;100.00
71791;BME280;59638;52.126;5.434;2023-08-21T03:23:58;102407.91;;;16.19;100.00
71791;BME280;59638;52.126;5.434;2023-08-21T03:26:29;102412.66;;;16.16;100.00
71791;BME280;59638;52.126;5.434;2023-08-21T03:28:55;102405.78;;;16.13;100.00
71791;BME280;59638;52.126;5.434;2023-08-21T03:31:22;102411.50;;;16.09;100.00
71791;BME280;59638;52.126;5.434;2023-08-21T03:33:48;102405.47;;;16.07;100.00
71791;BME280;59638;52.126;5.434;2023-08-21T03:36:15;102414.44;;;16.06;100.00
71791;BME280;59638;52.126;5.434;2023-08-21T03:38:42;102406.00;;;16.00;100.00
71791;BME280;59638;52.126;5.434;2023-08-21T03:41:08;102409.91;;;15.96;100.00
71791;BME280;59638;52.126;5.434;2023-08-21T03:43:35;102389.16;;;15.90;100.00
71791;BME280;59638;52.126;5.434;2023-08-21T03:46:01;102399.09;;;15.88;100.00
71791;BME280;59638;52.126;5.434;2023-08-21T03:48:28;102398.84;;;15.91;100.00
71791;BME280;59638;52.126;5.434;2023-08-21T03:50:54;102399.25;;;15.87;100.00
71791;BME280;59638;52.126;5.434;2023-08-21T03:53:21;102401.31;;;15.83;100.00
71791;BME280;59638;52.126;5.434;2023-08-21T03:55:47;102397.25;;;15.79;100.00
71791;BME280;59638;52.126;5.434;2023-08-21T03:58:14;102394.84;;;15.76;100.00
71791;BME280;59638;52.126;5.434;2023-08-21T04:00:41;102392.47;;;15.73;100.00
71791;BME280;59638;52.126;5.434;2023-08-21T04:03:07;102394.13;;;15.74;100.00
71791;BME280;59638;52.126;5.434;2023-08-21T04:05:34;102401.28;;;15.73;100.00
71791;BME280;59638;52.126;5.434;2023-08-21T04:08:01;102388.81;;;15.74;100.00
71791;BME280;59638;52.126;5.434;2023-08-21T04:10:27;102398.63;;;15.73;100.00
71791;BME280;59638;52.126;5.434;2023-08-21T04:12:53;102395.66;;;15.67;100.00
71791;BME280;59638;52.126;5.434;2023-08-21T04:15:20;102398.81;;;15.61;100.00
71791;BME280;59638;52.126;5.434;2023-08-21T04:17:46;102410.22;;;15.51;100.00
71791;BME280;59638;52.126;5.434;2023-08-21T04:20:13;102411.34;;;15.49;100.00
71791;BME280;59638;52.126;5.434;2023-08-21T04:22:39;102409.66;;;15.48;100.00
71791;BME280;59638;52.126;5.434;2023-08-21T04:25:07;102417.50;;;15.49;100.00
71791;BME280;59638;52.126;5.434;2023-08-21T04:27:33;102410.38;;;15.50;100.00
71791;BME280;59638;52.126;5.434;2023-08-21T04:30:00;102410.50;;;15.48;100.00
71791;BME280;59638;52.126;5.434;2023-08-21T04:32:27;102417.50;;;15.49;100.00
71791;BME280;59638;52.126;5.434;2023-08-21T04:34:54;102410.22;;;15.51;100.00
71791;BME280;59638;52.126;5.434;2023-08-21T04:37:20;102410.97;;;15.54;100.00
71791;BME280;59638;52.126;5.434;2023-08-21T04:39:50;102405.22;;;15.58;100.00
71791;BME280;59638;52.126;5.434;2023-08-21T04:42:17;102414.78;;;15.61;100.00
71791;BME280;59638;52.126;5.434;2023-08-21T04:44:44;102421.19;;;15.58;100.00
71791;BME280;59638;52.126;5.434;2023-08-21T04:47:27;102414.47;;;15.54;100.00
71791;BME280;59638;52.126;5.434;2023-08-21T04:49:54;102420.63;;;15.55;100.00
71791;BME280;59638;52.126;5.434;2023-08-21T04:52:22;102417.00;;;15.56;100.00
71791;BME280;59638;52.126;5.434;2023-08-21T04:54:48;102419.66;;;15.56;100.00
71791;BME280;59638;52.126;5.434;2023-08-21T04:57:16;102417.69;;;15.58;100.00
71791;BME280;59638;52.126;5.434;2023-08-21T04:59:43;102418.44;;;15.60;100.00
71791;BME280;59638;52.126;5.434;2023-08-21T05:02:10;102420.59;;;15.66;100.00
71791;BME280;59638;52.126;5.434;2023-08-21T05:04:37;102424.66;;;15.70;100.00
71791;BME280;59638;52.126;5.434;2023-08-21T05:07:04;102422.84;;;15.70;100.00
71791;BME280;59638;52.126;5.434;2023-08-21T05:09:33;102431.66;;;15.71;100.00
71791;BME280;59638;52.126;5.434;2023-08-21T05:12:00;102435.63;;;15.76;100.00
71791;BME280;59638;52.126;5.434;2023-08-21T05:14:26;102437.59;;;15.84;100.00
71791;BME280;59638;52.126;5.434;2023-08-21T05:16:53;102444.13;;;15.91;100.00
71791;BME280;59638;52.126;5.434;2023-08-21T05:19:19;102443.31;;;16.00;100.00
71791;BME280;59638;52.126;5.434;2023-08-21T05:21:46;102442.78;;;16.07;100.00
71791;BME280;59638;52.126;5.434;2023-08-21T05:24:12;102449.50;;;16.11;100.00
71791;BME280;59638;52.126;5.434;2023-08-21T05:26:39;102448.72;;;16.20;100.00
71791;BME280;59638;52.126;5.434;2023-08-21T05:29:05;102433.84;;;16.27;100.00
71791;BME280;59638;52.126;5.434;2023-08-21T05:31:32;102435.28;;;16.31;100.00
71791;BME280;59638;52.126;5.434;2023-08-21T05:33:59;102434.84;;;16.36;100.00
71791;BME280;59638;52.126;5.434;2023-08-21T05:36:26;102444.53;;;16.37;100.00
71791;BME280;59638;52.126;5.434;2023-08-21T05:38:52;102443.69;;;16.36;100.00
71791;BME280;59638;52.126;5.434;2023-08-21T05:41:19;102444.53;;;16.37;100.00
71791;BME280;59638;52.126;5.434;2023-08-21T05:43:45;102443.44;;;16.39;100.00
71791;BME280;59638;52.126;5.434;2023-08-21T05:46:12;102441.63;;;16.49;100.00
71791;BME280;59638;52.126;5.434;2023-08-21T05:48:38;102444.03;;;16.62;100.00
71791;BME280;59638;52.126;5.434;2023-08-21T05:51:05;102441.72;;;16.78;100.00
71791;BME280;59638;52.126;5.434;2023-08-21T05:53:31;102441.84;;;16.96;100.00
71791;BME280;59638;52.126;5.434;2023-08-21T05:55:58;102443.25;;;17.20;100.00
71791;BME280;59638;52.126;5.434;2023-08-21T05:58:24;102444.75;;;17.42;100.00
71791;BME280;59638;52.126;5.434;2023-08-21T06:00:55;102442.59;;;17.64;100.00
71791;BME280;59638;52.126;5.434;2023-08-21T06:03:22;102445.63;;;17.89;100.00
71791;BME280;59638;52.126;5.434;2023-08-21T06:05:48;102442.84;;;18.18;100.00
71791;BME280;59638;52.126;5.434;2023-08-21T06:08:15;102449.19;;;18.62;100.00
71791;BME280;59638;52.126;5.434;2023-08-21T06:10:41;102436.53;;;19.00;100.00
71791;BME280;59638;52.126;5.434;2023-08-21T06:13:08;102442.13;;;19.33;100.00
71791;BME280;59638;52.126;5.434;2023-08-21T06:15:34;102451.53;;;19.54;100.00
71791;BME280;59638;52.126;5.434;2023-08-21T06:18:01;102446.50;;;19.77;100.00
71791;BME280;59638;52.126;5.434;2023-08-21T06:20:27;102444.69;;;19.86;100.00
71791;BME280;59638;52.126;5.434;2023-08-21T06:22:54;102446.81;;;19.74;100.00
71791;BME280;59638;52.126;5.434;2023-08-21T06:25:20;102452.00;;;20.10;100.00
71791;BME280;59638;52.126;5.434;2023-08-21T06:27:47;102445.94;;;20.42;100.00
71791;BME280;59638;52.126;5.434;2023-08-21T06:30:25;102455.56;;;20.61;100.00
71791;BME280;59638;52.126;5.434;2023-08-21T06:32:52;102447.38;;;21.11;100.00
71791;BME280;59638;52.126;5.434;2023-08-21T06:35:19;102449.06;;;21.37;99.90
71791;BME280;59638;52.126;5.434;2023-08-21T06:37:45;102454.25;;;21.06;99.43
71791;BME280;59638;52.126;5.434;2023-08-21T06:40:12;102458.91;;;20.63;100.00
71791;BME280;59638;52.126;5.434;2023-08-21T06:42:38;102449.44;;;20.34;100.00
71791;BME280;59638;52.126;5.434;2023-08-21T06:45:06;102459.06;;;20.19;100.00
71791;BME280;59638;52.126;5.434;2023-08-21T06:47:32;102444.50;;;20.72;100.00
71791;BME280;59638;52.126;5.434;2023-08-21T06:49:59;102446.03;;;21.15;100.00
71791;BME280;59638;52.126;5.434;2023-08-21T06:52:26;102442.00;;;21.28;99.01
71791;BME280;59638;52.126;5.434;2023-08-21T06:54:53;102443.16;;;21.66;98.08
71791;BME280;59638;52.126;5.434;2023-08-21T06:57:19;102445.00;;;22.52;94.58
71791;BME280;59638;52.126;5.434;2023-08-21T06:59:46;102448.13;;;23.10;87.89
71791;BME280;59638;52.126;5.434;2023-08-21T07:02:12;102456.75;;;23.28;87.00
71791;BME280;59638;52.126;5.434;2023-08-21T07:04:38;102452.59;;;23.40;86.10
71791;BME280;59638;52.126;5.434;2023-08-21T07:07:05;102455.63;;;23.37;86.67
71791;BME280;59638;52.126;5.434;2023-08-21T07:09:32;102455.53;;;22.93;87.40
71791;BME280;59638;52.126;5.434;2023-08-21T07:11:58;102453.47;;;22.72;85.65
71791;BME280;59638;52.126;5.434;2023-08-21T07:14:25;102453.59;;;23.01;86.51
71791;BME280;59638;52.126;5.434;2023-08-21T07:16:51;102456.31;;;22.70;86.82
71791;BME280;59638;52.126;5.434;2023-08-21T07:19:17;102450.91;;;23.24;85.57
71791;BME280;59638;52.126;5.434;2023-08-21T07:21:44;102448.56;;;23.74;84.41
71791;BME280;59638;52.126;5.434;2023-08-21T07:24:10;102460.44;;;24.24;78.87
71791;BME280;59638;52.126;5.434;2023-08-21T07:26:37;102466.31;;;23.68;77.65
71791;BME280;59638;52.126;5.434;2023-08-21T07:29:03;102467.22;;;23.23;80.79
71791;BME280;59638;52.126;5.434;2023-08-21T07:31:31;102461.19;;;23.21;81.96
71791;BME280;59638;52.126;5.434;2023-08-21T07:33:57;102455.72;;;24.11;79.33
71791;BME280;59638;52.126;5.434;2023-08-21T07:36:24;102455.59;;;24.34;77.03
71791;BME280;59638;52.126;5.434;2023-08-21T07:38:50;102456.09;;;24.59;78.14
71791;BME280;59638;52.126;5.434;2023-08-21T07:41:17;102459.63;;;25.02;71.79
71791;BME280;59638;52.126;5.434;2023-08-21T07:43:44;102465.03;;;25.02;73.41
71791;BME280;59638;52.126;5.434;2023-08-21T07:46:12;102469.81;;;25.21;73.67
71791;BME280;59638;52.126;5.434;2023-08-21T07:48:42;102459.94;;;25.63;73.64
71791;BME280;59638;52.126;5.434;2023-08-21T07:51:09;102458.38;;;26.17;70.33
71791;BME280;59638;52.126;5.434;2023-08-21T07:53:36;102460.59;;;26.48;65.15
71791;BME280;59638;52.126;5.434;2023-08-21T07:56:03;102457.94;;;26.13;67.12
71791;BME280;59638;52.126;5.434;2023-08-21T07:58:30;102462.53;;;26.19;68.88
71791;BME280;59638;52.126;5.434;2023-08-21T08:00:58;102461.56;;;25.86;66.76
71791;BME280;59638;52.126;5.434;2023-08-21T08:03:25;102456.25;;;26.12;64.05
71791;BME280;59638;52.126;5.434;2023-08-21T08:05:51;102464.06;;;25.59;64.10
71791;BME280;59638;52.126;5.434;2023-08-21T08:08:21;102458.78;;;26.20;63.63
71791;BME280;59638;52.126;5.434;2023-08-21T08:10:48;102459.84;;;26.19;63.80
71791;BME280;59638;52.126;5.434;2023-08-21T08:13:15;102462.69;;;26.52;65.47
71791;BME280;59638;52.126;5.434;2023-08-21T08:15:41;102462.69;;;27.91;59.92
71791;BME280;59638;52.126;5.434;2023-08-21T08:18:12;102465.25;;;27.60;58.62
71791;BME280;59638;52.126;5.434;2023-08-21T08:20:39;102470.09;;;27.12;57.60
71791;BME280;59638;52.126;5.434;2023-08-21T08:23:06;102481.53;;;25.85;64.47
71791;BME280;59638;52.126;5.434;2023-08-21T08:25:32;102480.25;;;25.25;66.46
71791;BME280;59638;52.126;5.434;2023-08-21T08:27:59;102483.94;;;24.81;70.00
71791;BME280;59638;52.126;5.434;2023-08-21T08:30:26;102473.75;;;24.61;66.50
71791;BME280;59638;52.126;5.434;2023-08-21T08:32:52;102470.59;;;25.71;65.22
71791;BME280;59638;52.126;5.434;2023-08-21T08:35:19;102467.34;;;25.27;62.86
71791;BME280;59638;52.126;5.434;2023-08-21T08:37:45;102457.72;;;26.56;62.60
71791;BME280;59638;52.126;5.434;2023-08-21T08:40:12;102468.84;;;27.47;59.33
71791;BME280;59638;52.126;5.434;2023-08-21T08:42:38;102473.09;;;28.08;56.90
71791;BME280;59638;52.126;5.434;2023-08-21T08:45:06;102473.19;;;29.34;54.30
71791;BME280;59638;52.126;5.434;2023-08-21T08:47:33;102466.13;;;29.70;54.69
71791;BME280;59638;52.126;5.434;2023-08-21T08:50:05;102474.94;;;29.72;50.12
71791;BME280;59638;52.126;5.434;2023-08-21T08:52:38;102479.44;;;29.10;49.85
71791;BME280;59638;52.126;5.434;2023-08-21T08:55:06;102482.75;;;28.87;53.89
71791;BME280;59638;52.126;5.434;2023-08-21T08:57:33;102482.28;;;29.46;51.05
71791;BME280;59638;52.126;5.434;2023-08-21T09:00:01;102474.06;;;29.53;51.12
71791;BME280;59638;52.126;5.434;2023-08-21T09:02:28;102467.44;;;29.86;50.31
71791;BME280;59638;52.126;5.434;2023-08-21T09:04:54;102460.19;;;30.46;49.37
71791;BME280;59638;52.126;5.434;2023-08-21T09:07:21;102461.88;;;30.77;50.66
71791;BME280;59638;52.126;5.434;2023-08-21T09:09:49;102453.75;;;31.36;50.17
71791;BME280;59638;52.126;5.434;2023-08-21T09:12:17;102451.03;;;31.48;46.26
71791;BME280;59638;52.126;5.434;2023-08-21T09:14:44;102453.88;;;31.18;48.88
71791;BME280;59638;52.126;5.434;2023-08-21T09:17:11;102455.19;;;31.27;46.51
71791;BME280;59638;52.126;5.434;2023-08-21T09:19:38;102460.03;;;31.60;45.00
71791;BME280;59638;52.126;5.434;2023-08-21T09:22:10;102452.53;;;31.08;46.09
71791;BME280;59638;52.126;5.434;2023-08-21T09:24:38;102456.69;;;31.11;48.38
71791;BME280;59638;52.126;5.434;2023-08-21T09:27:12;102457.06;;;31.61;44.85
71791;BME280;59638;52.126;5.434;2023-08-21T09:29:40;102446.63;;;31.11;49.70
71791;BME280;59638;52.126;5.434;2023-08-21T09:32:07;102460.88;;;31.84;43.87
71791;BME280;59638;52.126;5.434;2023-08-21T09:34:35;102457.09;;;31.38;45.66
71791;BME280;59638;52.126;5.434;2023-08-21T09:37:06;102447.06;;;30.85;46.23
71791;BME280;59638;52.126;5.434;2023-08-21T09:39:35;102452.63;;;30.90;46.91
71791;BME280;59638;52.126;5.434;2023-08-21T09:42:06;102444.16;;;31.57;44.78
71791;BME280;59638;52.126;5.434;2023-08-21T09:44:39;102450.63;;;31.91;43.29
71791;BME280;59638;52.126;5.434;2023-08-21T09:47:11;102448.47;;;31.93;44.35
71791;BME280;59638;52.126;5.434;2023-08-21T09:49:39;102441.34;;;32.04;43.58
71791;BME280;59638;52.126;5.434;2023-08-21T09:52:07;102430.66;;;32.31;40.64
71791;BME280;59638;52.126;5.434;2023-08-21T09:54:33;102435.03;;;32.32;41.57
71791;BME280;59638;52.126;5.434;2023-08-21T09:57:02;102434.09;;;32.38;43.24
71791;BME280;59638;52.126;5.434;2023-08-21T09:59:30;102433.59;;;32.41;41.13
71791;BME280;59638;52.126;5.434;2023-08-21T10:01:59;102430.66;;;32.31;40.34
71791;BME280;59638;52.126;5.434;2023-08-21T10:04:28;102432.44;;;32.54;39.00
71791;BME280;59638;52.126;5.434;2023-08-21T10:06:56;102433.97;;;32.04;39.57
71791;BME280;59638;52.126;5.434;2023-08-21T10:09:24;102427.44;;;32.34;42.55
71791;BME280;59638;52.126;5.434;2023-08-21T10:11:52;102428.91;;;33.20;40.10
71791;BME280;59638;52.126;5.434;2023-08-21T10:14:22;102431.97;;;33.41;41.90
71791;BME280;59638;52.126;5.434;2023-08-21T10:16:51;102421.88;;;33.24;38.61
71791;BME280;59638;52.126;5.434;2023-08-21T10:19:19;102414.75;;;33.23;40.53
71791;BME280;59638;52.126;5.434;2023-08-21T10:21:49;102410.41;;;33.66;40.54
71791;BME280;59638;52.126;5.434;2023-08-21T10:24:33;102415.31;;;34.08;39.01
71791;BME280;59638;52.126;5.434;2023-08-21T10:27:00;102409.84;;;34.08;38.34
71791;BME280;59638;52.126;5.434;2023-08-21T10:29:27;102410.13;;;34.39;38.78
71791;BME280;59638;52.126;5.434;2023-08-21T10:32:00;102411.22;;;34.65;39.17
71791;BME280;59638;52.126;5.434;2023-08-21T10:34:36;102414.34;;;34.78;36.94
71791;BME280;59638;52.126;5.434;2023-08-21T10:37:06;102416.03;;;33.98;34.24
71791;BME280;59638;52.126;5.434;2023-08-21T10:39:33;102428.28;;;33.52;39.43
71791;BME280;59638;52.126;5.434;2023-08-21T10:44:52;102416.97;;;34.09;37.51
71791;BME280;59638;52.126;5.434;2023-08-21T10:47:23;102421.63;;;34.35;38.45
71791;BME280;59638;52.126;5.434;2023-08-21T10:49:52;102407.75;;;34.74;37.10
71791;BME280;59638;52.126;5.434;2023-08-21T10:54:57;102424.69;;;32.79;36.52
71791;BME280;59638;52.126;5.434;2023-08-21T10:57:25;102417.22;;;33.42;37.28
71791;BME280;59638;52.126;5.434;2023-08-21T11:02:18;102416.16;;;32.76;37.24
71791;BME280;59638;52.126;5.434;2023-08-21T11:04:45;102413.28;;;32.08;37.72
71791;BME280;59638;52.126;5.434;2023-08-21T11:07:12;102412.16;;;30.33;40.20
71791;BME280;59638;52.126;5.434;2023-08-21T11:09:42;102407.75;;;31.91;37.86
71791;BME280;59638;52.126;5.434;2023-08-21T11:12:14;102411.81;;;33.30;36.18
71791;BME280;59638;52.126;5.434;2023-08-21T11:14:41;102417.63;;;33.94;31.66
71791;BME280;59638;52.126;5.434;2023-08-21T11:17:09;102417.06;;;34.19;34.84
71791;BME280;59638;52.126;5.434;2023-08-21T11:19:36;102411.44;;;35.32;32.30
71791;BME280;59638;52.126;5.434;2023-08-21T11:22:04;102411.59;;;35.10;31.16
71791;BME280;59638;52.126;5.434;2023-08-21T11:24:39;102397.53;;;35.02;31.27
71791;BME280;59638;52.126;5.434;2023-08-21T11:27:17;102414.09;;;35.59;31.11
71791;BME280;59638;52.126;5.434;2023-08-21T11:29:46;102403.53;;;36.04;30.18
71791;BME280;59638;52.126;5.434;2023-08-21T11:32:15;102393.00;;;35.85;32.02
71791;BME280;59638;52.126;5.434;2023-08-21T11:34:46;102393.91;;;36.11;29.22
71791;BME280;59638;52.126;5.434;2023-08-21T11:37:13;102399.59;;;35.84;30.27
71791;BME280;59638;52.126;5.434;2023-08-21T11:39:42;102396.00;;;35.21;32.52
71791;BME280;59638;52.126;5.434;2023-08-21T11:42:09;102403.09;;;35.59;29.14
71791;BME280;59638;52.126;5.434;2023-08-21T11:44:56;102400.06;;;35.61;31.36
71791;BME280;59638;52.126;5.434;2023-08-21T11:47:23;102384.69;;;35.65;32.19
71791;BME280;59638;52.126;5.434;2023-08-21T11:49:50;102394.78;;;36.27;29.00
71791;BME280;59638;52.126;5.434;2023-08-21T11:52:19;102384.38;;;36.55;28.69
71791;BME280;59638;52.126;5.434;2023-08-21T11:54:50;102391.44;;;36.10;29.15
71791;BME280;59638;52.126;5.434;2023-08-21T11:57:17;102378.31;;;36.42;27.57
71791;BME280;59638;52.126;5.434;2023-08-21T12:00:03;102384.50;;;37.29;28.57
71791;BME280;59638;52.126;5.434;2023-08-21T12:02:31;102370.97;;;35.70;28.33
71791;BME280;59638;52.126;5.434;2023-08-21T12:05:03;102383.53;;;36.90;30.13
71791;BME280;59638;52.126;5.434;2023-08-21T12:07:34;102377.19;;;36.79;27.10
71791;BME280;59638;52.126;5.434;2023-08-21T12:10:01;102378.47;;;37.22;28.26
71791;BME280;59638;52.126;5.434;2023-08-21T12:12:27;102377.59;;;37.47;28.30
71791;BME280;59638;52.126;5.434;2023-08-21T12:14:54;102377.59;;;37.47;27.90
71791;BME280;59638;52.126;5.434;2023-08-21T12:17:20;102382.06;;;37.38;28.47
71791;BME280;59638;52.126;5.434;2023-08-21T12:19:47;102381.59;;;37.00;28.22
71791;BME280;59638;52.126;5.434;2023-08-21T12:22:13;102373.66;;;36.58;28.76
71791;BME280;59638;52.126;5.434;2023-08-21T12:24:40;102370.59;;;36.75;29.92
71791;BME280;59638;52.126;5.434;2023-08-21T12:27:07;102373.34;;;36.90;26.56
71791;BME280;59638;52.126;5.434;2023-08-21T12:29:33;102365.34;;;36.38;27.70
71791;BME280;59638;52.126;5.434;2023-08-21T12:32:00;102367.88;;;36.39;30.77
71791;BME280;59638;52.126;5.434;2023-08-21T12:34:27;102368.88;;;37.10;26.77
71791;BME280;59638;52.126;5.434;2023-08-21T12:36:53;102368.78;;;37.45;26.67
71791;BME280;59638;52.126;5.434;2023-08-21T12:39:19;102357.66;;;36.81;26.81
71791;BME280;59638;52.126;5.434;2023-08-21T12:41:46;102360.69;;;36.38;28.40
71791;BME280;59638;52.126;5.434;2023-08-21T12:44:12;102356.84;;;36.49;28.57
71791;BME280;59638;52.126;5.434;2023-08-21T12:46:39;102353.47;;;35.97;28.16
71791;BME280;59638;52.126;5.434;2023-08-21T12:49:06;102347.59;;;33.81;31.68
71791;BME280;59638;52.126;5.434;2023-08-21T12:51:32;102351.19;;;32.04;36.91
71791;BME280;59638;52.126;5.434;2023-08-21T12:53:59;102347.25;;;31.31;41.84
71791;BME280;59638;52.126;5.434;2023-08-21T12:56:25;102350.50;;;30.63;39.71
71791;BME280;59638;52.126;5.434;2023-08-21T12:58:52;102362.25;;;29.36;42.93
71791;BME280;59638;52.126;5.434;2023-08-21T13:01:18;102355.91;;;28.49;48.12
71791;BME280;59638;52.126;5.434;2023-08-21T13:03:46;102352.81;;;27.56;47.37